createdAt,value
2022-11-28T07:56:35.009Z,100742.59
2022-11-28T07:59:47.011Z,100753.44
2022-11-28T08:14:08.785Z,100757.03
2022-11-28T08:17:11.269Z,100763.06
2022-11-28T08:28:56.972Z,100763.50
2022-11-28T08:39:16.577Z,100756.47
2022-11-28T08:42:17.771Z,100755.94
2022-11-28T08:56:41.564Z,100751.56
2022-11-28T09:13:39.364Z,100744.34
2022-11-28T09:26:14.229Z,100749.38
2022-11-28T09:29:16.677Z,100756.56
2022-11-28T09:40:04.721Z,100752.75
2022-11-28T09:49:47.674Z,100737.31
2022-11-28T09:52:57.706Z,100737.75
2022-11-28T09:56:05.266Z,100731.41
2022-11-28T09:59:21.332Z,100730.66
2022-11-28T10:02:32.766Z,100733.16
2022-11-28T10:05:43.022Z,100723.41
2022-11-28T10:14:33.177Z,100712.06
2022-11-28T10:17:49.979Z,100721.41
2022-11-28T10:20:57.828Z,100712.41
2022-11-28T10:24:04.577Z,100704.91
2022-11-28T10:27:07.215Z,100710.84
2022-11-28T10:30:19.180Z,100711.66
2022-11-28T10:33:25.321Z,100721.91
2022-11-28T10:36:32.383Z,100718.44
2022-11-28T10:39:36.693Z,100716.53
2022-11-28T10:42:48.525Z,100724.16
2022-11-28T10:46:02.304Z,100717.94
2022-11-28T10:49:18.012Z,100717.09
2022-11-28T10:58:49.649Z,100712.16
2022-11-28T11:08:30.975Z,100717.09
2022-11-28T11:11:38.112Z,100712.16
2022-11-28T11:14:40.877Z,100708.47
2022-11-28T11:17:43.523Z,100706.56
2022-11-28T11:20:46.018Z,100711.66
2022-11-28T11:24:13.587Z,100699.38
2022-11-28T11:27:20.233Z,100699.31
2022-11-28T11:30:27.819Z,100705.34
2022-11-28T11:33:35.205Z,100701.47
2022-11-28T11:36:38.333Z,100703.09
2022-11-28T11:39:50.354Z,100692.84
2022-11-28T11:42:54.180Z,100699.94
2022-11-28T11:46:07.368Z,100699.63
2022-11-28T11:49:29.407Z,100694.97
2022-11-28T11:52:31.899Z,100683.81
2022-11-28T11:55:45.490Z,100690.06
2022-11-28T11:58:52.875Z,100687.41
2022-11-28T12:02:00.890Z,100678.53
2022-11-28T12:05:06.331Z,100675.69
2022-11-28T12:08:16.340Z,100681.25
2022-11-28T12:11:26.168Z,100673.19
2022-11-28T12:14:31.145Z,100676.34
2022-11-28T12:21:14.482Z,100683.47
2022-11-28T12:24:23.815Z,100681.91
2022-11-28T12:27:40.695Z,100675.78
2022-11-28T12:30:58.334Z,100680.19
2022-11-28T12:34:16.576Z,100671.44
2022-11-28T12:38:02.616Z,100664.47
2022-11-28T12:41:14.974Z,100678.25
2022-11-28T12:53:40.450Z,100681.34
2022-11-28T13:17:42.069Z,100646.53
2022-11-28T13:33:52.313Z,100639.03
